Terminal Aerodrome Forecast
Issued by NWS

Home | Current Version | Previous Version | Text Only | Print | Product List | Glossary On
Versions: 1 2 3 4 5 6 7 8 9 10 11 12 13 14
000
FTUS42 TJSJ 180500
TAFISX
TAF
TISX 180526Z 1806/1906 07009KT P6SM VCSH FEW050 OVC090
      TEMPO 1806/1810 VRB13G21KT 5SM -SHRA BKN025
     FM181430 10018KT P6SM SCT030 SCT070
     FM182330 09012KT P6SM FEW025 SCT050 SCT070=

USA.gov is the U.S. government's official web portal to all federal, state and local government web resources and services.